createdAt,value
2022-09-30T00:00:57.814Z,9.712195
2022-09-30T00:01:57.828Z,9.712002
2022-09-30T00:02:57.833Z,9.711781
2022-09-30T00:03:57.833Z,9.711856
2022-09-30T00:04:57.785Z,9.711594
2022-09-30T00:05:58.277Z,9.711666
2022-09-30T00:06:57.761Z,9.711697
2022-09-30T00:07:57.761Z,9.711699
2022-09-30T00:08:57.859Z,9.711727
2022-09-30T00:09:59.261Z,9.711656
2022-09-30T00:10:57.736Z,9.711560
2022-09-30T00:11:57.721Z,9.711773
2022-09-30T00:12:58.267Z,9.711707
2022-09-30T00:13:57.723Z,9.711642
2022-09-30T00:14:57.723Z,9.711647
2022-09-30T00:15:57.778Z,9.711655
2022-09-30T00:16:57.695Z,9.711668
2022-09-30T00:17:57.682Z,9.711670
2022-09-30T00:18:57.680Z,9.711648
2022-09-30T00:19:57.694Z,9.711651
2022-09-30T00:20:58.223Z,9.711668
2022-09-30T00:21:57.651Z,9.711675
2022-09-30T00:22:57.650Z,9.711674
2022-09-30T00:23:57.639Z,9.711682
2022-09-30T00:24:57.634Z,9.711708
2022-09-30T00:25:57.640Z,9.711706
2022-09-30T00:26:57.610Z,9.711687
2022-09-30T00:27:57.601Z,9.711665
2022-09-30T00:28:57.609Z,9.711637
2022-09-30T00:32:50.176Z,9.711473
2022-09-30T00:33:50.176Z,9.711558
2022-09-30T00:34:50.161Z,9.711654
2022-09-30T00:35:50.164Z,9.711639
2022-09-30T00:36:50.157Z,9.711635
2022-09-30T00:37:50.149Z,9.711611
2022-09-30T00:38:50.129Z,9.711622
2022-09-30T00:39:50.122Z,9.711637
2022-09-30T00:40:50.144Z,9.711598
2022-09-30T00:41:50.118Z,9.711635
2022-09-30T00:42:50.096Z,9.711588
2022-09-30T00:43:50.102Z,9.711596
2022-09-30T00:44:50.083Z,9.711600
2022-09-30T00:45:50.052Z,9.711562
2022-09-30T00:46:51.116Z,9.711518
2022-09-30T00:47:50.066Z,9.711489
2022-09-30T00:48:50.051Z,9.711538
2022-09-30T00:49:50.042Z,9.711653
2022-09-30T00:50:50.033Z,9.711491
2022-09-30T00:51:50.020Z,9.711508
2022-09-30T00:52:50.033Z,9.711475
2022-09-30T00:53:50.003Z,9.711516
2022-09-30T00:54:50.003Z,9.711485
2022-09-30T00:55:49.992Z,9.711506
2022-09-30T00:56:49.985Z,9.711549
2022-09-30T00:57:49.979Z,9.711535
2022-09-30T00:58:49.962Z,9.711570
2022-09-30T00:59:49.955Z,9.711584
2022-09-30T01:00:50.047Z,9.711601
2022-09-30T01:01:49.967Z,9.711660
2022-09-30T01:02:49.940Z,9.711694
2022-09-30T01:03:49.922Z,9.711819
2022-09-30T01:04:49.922Z,9.712087
2022-09-30T01:05:49.906Z,9.711684
2022-09-30T01:06:49.895Z,9.711596
2022-09-30T01:07:49.907Z,9.711474
2022-09-30T01:08:49.897Z,9.711503
2022-09-30T01:09:49.920Z,9.711563
2022-09-30T01:10:49.868Z,9.711528
2022-09-30T01:11:49.857Z,9.711448
2022-09-30T01:12:49.860Z,9.711478
2022-09-30T01:13:49.852Z,9.711535
2022-09-30T01:14:49.848Z,9.711525
2022-09-30T01:15:49.898Z,9.711590
2022-09-30T01:16:49.823Z,9.711657
2022-09-30T01:17:49.819Z,9.711718
2022-09-30T01:18:49.808Z,9.711598
2022-09-30T01:19:49.806Z,9.711567
2022-09-30T01:20:49.790Z,9.711565
2022-09-30T01:21:49.795Z,9.711385
2022-09-30T01:22:49.778Z,9.711783
2022-09-30T01:23:49.771Z,9.711857
2022-09-30T01:24:49.774Z,9.711711
2022-09-30T01:25:49.751Z,9.711504
2022-09-30T01:26:49.747Z,9.711503
2022-09-30T01:27:49.738Z,9.711490
2022-09-30T01:28:49.733Z,9.711499
2022-09-30T01:29:49.727Z,9.711671
2022-09-30T01:30:49.715Z,9.711740
2022-09-30T01:31:49.766Z,9.711735
2022-09-30T01:32:49.696Z,9.711853
2022-09-30T01:33:49.699Z,9.712135
2022-09-30T01:34:49.686Z,9.712149
2022-09-30T01:35:49.669Z,9.711572
2022-09-30T01:36:49.674Z,9.711643
2022-09-30T01:37:49.656Z,9.711861
2022-09-30T01:38:49.651Z,9.711707
2022-09-30T01:39:49.639Z,9.711585
2022-09-30T01:40:49.649Z,9.711833
2022-09-30T01:41:49.620Z,9.711589
2022-09-30T01:42:49.613Z,9.711694
2022-09-30T01:43:49.621Z,9.711631
2022-09-30T01:44:49.597Z,9.711770
2022-09-30T01:45:49.592Z,9.711965
2022-09-30T01:46:49.631Z,9.711819
2022-09-30T01:47:49.577Z,9.711727
2022-09-30T01:48:49.579Z,9.711733
2022-09-30T01:49:49.558Z,9.711882
2022-09-30T01:50:49.566Z,9.711815
2022-09-30T01:51:49.536Z,9.711650
2022-09-30T01:52:49.558Z,9.711635
2022-09-30T01:53:49.516Z,9.711564
2022-09-30T01:54:49.522Z,9.711576
2022-09-30T01:55:49.509Z,9.711540
2022-09-30T01:56:49.500Z,9.711774
2022-09-30T01:57:49.488Z,9.711827
2022-09-30T01:58:49.493Z,9.711739
2022-09-30T01:59:49.473Z,9.711804
2022-09-30T02:00:49.593Z,9.711669
2022-09-30T02:01:49.486Z,9.711870
2022-09-30T02:02:49.463Z,9.712032
2022-09-30T02:03:49.450Z,9.712427
2022-09-30T02:04:49.437Z,9.711720
2022-09-30T02:05:50.046Z,9.711831
2022-09-30T02:06:50.422Z,9.711740
2022-09-30T02:07:49.426Z,9.711679
2022-09-30T02:08:49.411Z,9.711792
2022-09-30T02:09:49.494Z,9.712118
2022-09-30T02:10:49.399Z,9.712072
2022-09-30T02:11:49.385Z,9.712190
2022-09-30T02:12:49.372Z,9.711886
2022-09-30T02:13:49.366Z,9.712070
2022-09-30T02:14:49.368Z,9.712400
2022-09-30T02:15:49.385Z,9.712468
2022-09-30T02:16:49.439Z,9.712690
2022-09-30T02:17:49.342Z,9.712322
2022-09-30T02:18:49.337Z,9.712494
2022-09-30T02:19:49.324Z,9.712214
2022-09-30T02:20:49.320Z,9.711726
2022-09-30T02:21:49.319Z,9.711658
2022-09-30T02:22:49.298Z,9.711625
2022-09-30T02:23:49.289Z,9.711625
2022-09-30T02:24:49.292Z,9.711637
2022-09-30T02:25:49.317Z,9.711637
2022-09-30T02:26:49.275Z,9.711637
2022-09-30T02:27:49.262Z,9.711637
2022-09-30T02:28:49.251Z,9.711637
2022-09-30T02:29:49.254Z,9.711637
2022-09-30T02:30:49.230Z,9.711637
2022-09-30T02:31:49.276Z,9.711548
2022-09-30T02:32:49.218Z,9.711548
2022-09-30T02:33:49.209Z,9.711548
2022-09-30T02:34:49.204Z,9.711828
2022-09-30T02:35:49.195Z,9.712022
2022-09-30T02:36:49.189Z,9.711870
2022-09-30T02:37:49.170Z,9.711548
2022-09-30T02:38:49.165Z,9.711541
2022-09-30T02:39:49.175Z,9.711462
2022-09-30T02:40:49.158Z,9.711431
2022-09-30T02:41:49.186Z,9.711498
2022-09-30T02:42:49.144Z,9.711546
2022-09-30T02:43:49.135Z,9.711523
2022-09-30T02:44:49.130Z,9.711496
2022-09-30T02:45:49.112Z,9.711545
2022-09-30T02:46:49.192Z,9.711539
2022-09-30T02:47:49.099Z,9.711596
2022-09-30T02:48:49.099Z,9.711596
2022-09-30T02:49:49.081Z,9.711610
2022-09-30T02:50:49.081Z,9.711667
2022-09-30T02:51:49.075Z,9.711643
2022-09-30T02:52:49.056Z,9.711526
2022-09-30T02:53:49.055Z,9.711494
2022-09-30T02:54:49.039Z,9.711681
2022-09-30T02:55:49.023Z,9.711836
2022-09-30T02:56:50.034Z,9.711806
2022-09-30T02:57:49.019Z,9.711782
2022-09-30T02:58:49.007Z,9.711618
2022-09-30T02:59:49.009Z,9.711526
2022-09-30T03:00:49.090Z,9.711916
2022-09-30T03:01:49.043Z,9.711980
2022-09-30T03:02:48.983Z,9.712471
2022-09-30T03:03:48.975Z,9.712086
2022-09-30T03:04:48.963Z,9.711367
2022-09-30T03:05:48.953Z,9.711295
2022-09-30T03:06:48.943Z,9.711276
2022-09-30T03:07:48.950Z,9.711526
2022-09-30T03:08:48.930Z,9.711649
2022-09-30T03:09:48.991Z,9.711519
2022-09-30T03:10:48.919Z,9.711394
2022-09-30T03:11:48.905Z,9.711566
2022-09-30T03:12:48.915Z,9.711890
2022-09-30T03:13:48.890Z,9.711884
2022-09-30T03:14:48.877Z,9.711576
2022-09-30T03:15:48.915Z,9.711917
2022-09-30T03:16:48.860Z,9.711750
2022-09-30T03:17:48.865Z,9.711724
2022-09-30T03:18:48.859Z,9.711817
2022-09-30T03:19:48.850Z,9.711749
2022-09-30T03:20:48.834Z,9.711637
2022-09-30T03:21:48.842Z,9.711600
2022-09-30T03:22:48.826Z,9.711649
2022-09-30T03:23:48.805Z,9.711643
2022-09-30T03:24:48.813Z,9.711674
2022-09-30T03:25:48.796Z,9.711678
2022-09-30T03:26:48.792Z,9.711721
2022-09-30T03:27:48.782Z,9.711679
2022-09-30T03:28:48.770Z,9.711668
2022-09-30T03:29:48.761Z,9.711624
2022-09-30T03:30:48.756Z,9.711647
2022-09-30T03:31:48.801Z,9.711762
2022-09-30T03:32:48.738Z,9.711754
2022-09-30T03:33:48.738Z,9.711680
2022-09-30T03:34:48.729Z,9.711659
2022-09-30T03:35:48.725Z,9.711688
2022-09-30T03:36:48.706Z,9.711704
2022-09-30T03:37:48.699Z,9.711675
2022-09-30T03:38:48.698Z,9.711672
2022-09-30T03:39:48.684Z,9.711705
2022-09-30T03:40:48.676Z,9.711723
2022-09-30T03:41:48.669Z,9.711748
2022-09-30T03:42:48.669Z,9.711726
2022-09-30T03:43:48.660Z,9.711663
2022-09-30T03:44:48.641Z,9.711594
2022-09-30T03:45:48.655Z,9.711627
2022-09-30T03:46:48.652Z,9.711621
2022-09-30T03:47:48.647Z,9.711566
2022-09-30T03:48:48.613Z,9.711595
2022-09-30T03:49:48.601Z,9.711616
2022-09-30T03:50:48.596Z,9.711605
2022-09-30T03:51:50.940Z,9.711597
2022-09-30T03:52:49.648Z,9.711616
2022-09-30T03:53:48.569Z,9.711622
2022-09-30T03:54:49.073Z,9.711586
2022-09-30T03:55:48.559Z,9.711559
2022-09-30T03:56:48.549Z,9.711643
2022-09-30T03:57:48.537Z,9.711623
2022-09-30T03:58:48.535Z,9.711713
2022-09-30T03:59:48.526Z,9.711640
2022-09-30T04:00:48.596Z,9.711629
2022-09-30T04:01:48.572Z,9.711688
2022-09-30T04:02:48.497Z,9.711637
2022-09-30T04:03:48.485Z,9.711777
2022-09-30T04:04:48.487Z,9.711723
2022-09-30T04:05:48.476Z,9.711751
2022-09-30T04:06:48.462Z,9.711658
2022-09-30T04:07:48.453Z,9.711571
2022-09-30T04:08:48.486Z,9.711559
2022-09-30T04:09:48.610Z,9.711493
2022-09-30T04:10:48.441Z,9.711477
2022-09-30T04:11:48.434Z,9.711547
2022-09-30T04:12:48.427Z,9.711545
2022-09-30T04:13:48.426Z,9.711551
2022-09-30T04:14:48.397Z,9.711614
2022-09-30T04:15:48.393Z,9.711588
2022-09-30T04:16:51.894Z,9.711711
2022-09-30T04:17:50.375Z,9.711611
2022-09-30T04:18:48.373Z,9.711415
2022-09-30T04:19:48.360Z,9.711501
2022-09-30T04:20:48.359Z,9.711468
2022-09-30T04:21:48.356Z,9.711553
2022-09-30T04:22:48.338Z,9.711572
2022-09-30T04:23:48.341Z,9.711489
2022-09-30T04:24:48.327Z,9.711580
2022-09-30T04:25:48.356Z,9.711560
2022-09-30T04:26:48.307Z,9.711691
2022-09-30T04:27:48.318Z,9.711754
2022-09-30T04:28:48.289Z,9.711695
2022-09-30T04:29:48.278Z,9.711607
2022-09-30T04:30:48.287Z,9.711595
2022-09-30T04:31:48.322Z,9.711645
2022-09-30T04:32:48.264Z,9.711472
2022-09-30T04:33:48.264Z,9.711562
2022-09-30T04:34:48.239Z,9.711511
2022-09-30T04:35:48.227Z,9.711711
2022-09-30T04:36:48.221Z,9.711664
2022-09-30T04:37:48.213Z,9.711584
2022-09-30T04:38:48.209Z,9.711605
2022-09-30T04:39:48.195Z,9.711473
2022-09-30T04:40:48.192Z,9.711483
2022-09-30T04:41:48.179Z,9.711579
2022-09-30T04:42:48.289Z,9.711664
2022-09-30T04:43:48.169Z,9.711535
2022-09-30T04:44:48.175Z,9.711249
2022-09-30T04:45:48.228Z,9.711581
2022-09-30T04:46:48.139Z,9.711687
2022-09-30T04:47:48.134Z,9.711784
2022-09-30T04:48:48.134Z,9.711563
2022-09-30T04:49:48.119Z,9.711530
2022-09-30T04:50:48.115Z,9.711690
2022-09-30T04:51:48.115Z,9.711847
2022-09-30T04:52:48.098Z,9.711719
2022-09-30T04:53:48.096Z,9.711675
2022-09-30T04:54:48.088Z,9.711686
2022-09-30T04:55:48.080Z,9.711659
2022-09-30T04:56:48.078Z,9.711672
2022-09-30T04:57:49.011Z,9.711668
2022-09-30T04:58:48.052Z,9.711681
2022-09-30T04:59:48.050Z,9.711667
2022-09-30T05:00:48.090Z,9.711642
2022-09-30T05:01:48.108Z,9.711639
2022-09-30T05:02:48.020Z,9.711664
2022-09-30T05:03:48.591Z,9.711627
2022-09-30T05:04:48.009Z,9.711618
2022-09-30T05:05:48.007Z,9.711615
2022-09-30T05:06:47.995Z,9.711643
2022-09-30T05:07:47.978Z,9.711638
2022-09-30T05:08:47.984Z,9.711665
2022-09-30T05:09:47.984Z,9.711630
2022-09-30T05:10:47.951Z,9.711642
2022-09-30T05:11:47.957Z,9.711687
2022-09-30T05:12:47.952Z,9.711730
2022-09-30T05:13:47.944Z,9.711758
2022-09-30T05:14:47.925Z,9.711724
2022-09-30T05:15:47.958Z,9.711695
2022-09-30T05:16:47.930Z,9.711690
2022-09-30T05:17:47.908Z,9.711841
2022-09-30T05:18:47.896Z,9.711766
2022-09-30T06:01:55.055Z,9.711638
2022-09-30T06:02:55.064Z,9.711624
2022-09-30T06:03:54.941Z,9.711614
2022-09-30T06:04:54.924Z,9.711623
2022-09-30T06:05:54.931Z,9.711626
2022-09-30T06:06:54.905Z,9.711679
2022-09-30T06:07:54.932Z,9.711665
2022-09-30T06:08:54.975Z,9.711655
2022-09-30T06:09:54.911Z,9.711624
2022-09-30T06:10:54.887Z,9.711625
2022-09-30T06:11:54.879Z,9.711623
2022-09-30T06:12:54.943Z,9.711636
2022-09-30T06:13:54.849Z,9.711720
2022-09-30T06:14:54.847Z,9.711681
2022-09-30T06:15:54.850Z,9.711556
2022-09-30T06:16:54.903Z,9.711599
2022-09-30T06:17:55.626Z,9.711562
2022-09-30T06:18:55.625Z,9.711633
2022-09-30T06:19:54.805Z,9.711565
2022-09-30T06:20:54.821Z,9.711690
2022-09-30T06:21:54.783Z,9.711718
2022-09-30T06:22:54.794Z,9.711718
2022-09-30T06:23:54.768Z,9.711718
2022-09-30T06:24:55.415Z,9.711718
2022-09-30T06:25:55.768Z,9.711718
2022-09-30T06:26:54.757Z,9.711718
2022-09-30T06:27:54.745Z,9.711823
2022-09-30T06:28:54.734Z,9.711740
2022-09-30T06:29:54.723Z,9.711753
2022-09-30T06:30:54.731Z,9.711709
2022-09-30T06:31:54.853Z,9.711738
2022-09-30T06:32:54.704Z,9.711706
2022-09-30T06:33:54.688Z,9.711720
2022-09-30T06:34:54.701Z,9.711704
2022-09-30T06:35:54.693Z,9.711716
2022-09-30T06:36:54.671Z,9.711658
2022-09-30T06:37:54.677Z,9.711817
2022-09-30T06:38:54.646Z,9.711606
2022-09-30T06:39:54.660Z,9.711656
2022-09-30T06:40:54.643Z,9.711719
2022-09-30T06:41:54.622Z,9.711755
2022-09-30T06:42:54.622Z,9.711729
2022-09-30T06:43:58.398Z,9.711694
2022-09-30T06:44:54.598Z,9.711692
2022-09-30T06:46:04.319Z,9.711692
2022-09-30T06:46:56.693Z,9.711747
2022-09-30T06:48:00.050Z,9.711713
2022-09-30T06:49:08.527Z,9.711699
2022-09-30T06:49:56.570Z,9.711682
2022-09-30T06:51:01.584Z,9.711629
2022-09-30T06:51:56.546Z,9.711664
2022-09-30T06:52:54.557Z,9.711697
2022-09-30T06:53:54.530Z,9.711694
2022-09-30T06:54:54.526Z,9.711727
2022-09-30T06:55:54.525Z,9.711697
2022-09-30T06:56:54.495Z,9.711702
2022-09-30T06:57:54.493Z,9.711663
2022-09-30T06:58:54.535Z,9.711660
2022-09-30T06:59:54.511Z,9.711653
2022-09-30T07:00:55.096Z,9.711664
2022-09-30T07:01:54.526Z,9.711674
2022-09-30T07:02:54.454Z,9.711728
2022-09-30T07:03:54.821Z,9.711793
2022-09-30T07:04:55.433Z,9.711727
2022-09-30T07:05:54.438Z,9.711682
2022-09-30T07:06:54.432Z,9.711700
2022-09-30T07:07:54.418Z,9.711646
2022-09-30T07:08:56.154Z,9.711695
2022-09-30T07:09:57.558Z,9.711634
2022-09-30T07:10:56.380Z,9.711676
2022-09-30T07:11:54.374Z,9.711575
2022-09-30T07:12:54.365Z,9.711525
2022-09-30T07:13:54.409Z,9.711639
2022-09-30T07:14:56.076Z,9.711541
2022-09-30T07:15:54.349Z,9.711577
2022-09-30T07:16:54.443Z,9.711766
2022-09-30T07:17:55.276Z,9.711733
2022-09-30T07:18:54.336Z,9.711652
2022-09-30T07:19:54.441Z,9.711710
2022-09-30T07:20:54.297Z,9.711789
2022-09-30T07:21:54.306Z,9.711845
2022-09-30T07:22:54.286Z,9.711811
2022-09-30T07:23:54.918Z,9.711740
2022-09-30T07:24:54.289Z,9.711670
2022-09-30T07:25:54.284Z,9.711682
2022-09-30T07:26:54.260Z,9.711616
2022-09-30T07:27:54.283Z,9.711585
2022-09-30T07:28:54.239Z,9.711555
2022-09-30T07:30:08.874Z,9.711573
2022-09-30T07:31:08.095Z,9.711574
2022-09-30T07:31:56.284Z,9.711550
2022-09-30T07:32:54.221Z,9.711691
2022-09-30T07:33:54.197Z,9.711910
2022-09-30T07:34:54.181Z,9.711667
2022-09-30T07:35:54.180Z,9.711632
2022-09-30T07:36:54.179Z,9.711789
2022-09-30T07:37:54.169Z,9.711761
2022-09-30T07:38:54.167Z,9.711793
2022-09-30T07:39:54.156Z,9.711706
2022-09-30T07:40:54.155Z,9.711570
2022-09-30T07:41:54.165Z,9.711659
2022-09-30T07:42:54.121Z,9.711669
2022-09-30T07:43:54.108Z,9.711696
2022-09-30T07:44:55.121Z,9.711676
2022-09-30T07:45:54.202Z,9.711834
2022-09-30T07:46:54.101Z,9.711838
2022-09-30T07:47:54.172Z,9.711871
2022-09-30T07:48:54.077Z,9.711762
2022-09-30T07:49:54.061Z,9.711687
2022-09-30T07:50:54.075Z,9.712092
2022-09-30T07:51:54.103Z,9.711845
2022-09-30T07:52:54.048Z,9.711763
2022-09-30T07:53:54.034Z,9.711665
2022-09-30T07:54:54.018Z,9.711855
2022-09-30T07:55:54.026Z,9.711873
2022-09-30T07:57:10.824Z,9.711519
2022-09-30T07:57:56.017Z,9.711576
2022-09-30T07:58:54.018Z,9.711577
2022-09-30T07:59:53.984Z,9.711711
2022-09-30T08:00:54.031Z,9.711653
2022-09-30T08:01:53.999Z,9.711625
2022-09-30T08:02:53.967Z,9.711577
2022-09-30T08:03:53.960Z,9.711578
2022-09-30T08:04:53.950Z,9.711588
2022-09-30T08:05:53.948Z,9.711685
2022-09-30T08:06:54.641Z,9.711756
2022-09-30T08:07:53.925Z,9.711690
2022-09-30T08:08:53.908Z,9.711929
2022-09-30T08:09:53.960Z,9.712048
2022-09-30T08:10:53.907Z,9.711850
2022-09-30T08:11:54.061Z,9.711722
2022-09-30T08:12:56.128Z,9.711723
2022-09-30T08:13:54.866Z,9.711686
2022-09-30T08:14:53.865Z,9.711639
2022-09-30T08:15:53.861Z,9.711620
2022-09-30T08:16:53.941Z,9.711691
2022-09-30T08:17:53.847Z,9.711725
2022-09-30T08:18:53.833Z,9.711695
2022-09-30T08:19:53.830Z,9.711748
2022-09-30T08:20:53.812Z,9.711699
2022-09-30T08:21:53.882Z,9.711691
2022-09-30T08:22:54.686Z,9.711752
2022-09-30T08:23:53.795Z,9.711684
2022-09-30T08:24:53.793Z,9.711699
2022-09-30T08:25:53.782Z,9.711708
2022-09-30T08:26:53.895Z,9.711644
2022-09-30T08:27:53.765Z,9.711748
2022-09-30T08:28:53.746Z,9.711702
2022-09-30T08:29:56.093Z,9.711693
2022-09-30T08:30:54.731Z,9.711659
2022-09-30T08:31:53.765Z,9.711724
2022-09-30T08:32:53.715Z,9.711647
2022-09-30T08:33:53.710Z,9.711685
2022-09-30T08:34:53.717Z,9.711714
2022-09-30T08:35:53.695Z,9.711783
2022-09-30T08:36:57.816Z,9.711708
2022-09-30T08:37:55.710Z,9.711725
2022-09-30T08:38:53.913Z,9.711658
2022-09-30T08:39:53.679Z,9.711780
2022-09-30T08:40:53.661Z,9.711818
2022-09-30T08:41:53.654Z,9.711813
2022-09-30T08:42:56.860Z,9.711786
2022-09-30T08:43:54.634Z,9.711855
2022-09-30T08:44:53.617Z,9.711793
2022-09-30T08:45:53.683Z,9.711835
2022-09-30T08:46:57.535Z,9.711919
2022-09-30T08:47:54.600Z,9.711753
2022-09-30T08:48:53.587Z,9.711909
2022-09-30T08:49:53.581Z,9.711933
2022-09-30T08:50:53.595Z,9.711815
2022-09-30T08:51:53.605Z,9.711822
2022-09-30T08:52:53.548Z,9.711835
2022-09-30T08:53:53.542Z,9.711691
2022-09-30T08:54:53.532Z,9.711727
2022-09-30T08:55:53.530Z,9.711916
2022-09-30T08:56:53.551Z,9.711857
2022-09-30T08:57:53.526Z,9.711846
2022-09-30T08:58:53.499Z,9.711810
2022-09-30T08:59:53.492Z,9.711918
2022-09-30T09:00:53.497Z,9.711857
2022-09-30T09:01:56.118Z,9.712035
2022-09-30T09:02:53.492Z,9.711966
2022-09-30T09:03:54.152Z,9.711796
2022-09-30T09:04:53.455Z,9.711779
2022-09-30T09:05:53.451Z,9.711811
2022-09-30T09:06:53.441Z,9.711968
2022-09-30T09:07:53.444Z,9.712040
2022-09-30T09:08:53.440Z,9.711949
2022-09-30T09:09:53.432Z,9.711921
2022-09-30T09:10:53.428Z,9.712023
2022-09-30T09:11:53.406Z,9.712045
2022-09-30T09:12:53.469Z,9.712058
2022-09-30T09:13:53.394Z,9.711925
2022-09-30T09:14:53.413Z,9.711924
2022-09-30T09:15:53.369Z,9.711852
2022-09-30T09:16:53.410Z,9.712044
2022-09-30T09:18:18.204Z,9.712302
2022-09-30T09:18:55.359Z,9.712340
2022-09-30T09:19:53.340Z,9.712405
2022-09-30T09:20:53.361Z,9.712353
2022-09-30T09:21:53.320Z,9.712132
2022-09-30T09:22:53.318Z,9.712077
2022-09-30T09:23:53.318Z,9.712091
2022-09-30T09:24:53.296Z,9.712216
2022-09-30T09:25:53.299Z,9.712198
2022-09-30T09:26:53.297Z,9.712310
2022-09-30T09:27:53.325Z,9.712562
2022-09-30T09:28:53.879Z,9.712632
2022-09-30T09:29:54.164Z,9.712306
2022-09-30T09:30:53.242Z,9.712201
2022-09-30T09:31:53.326Z,9.712227
2022-09-30T09:32:53.227Z,9.712590
2022-09-30T09:33:53.235Z,9.712809
2022-09-30T09:34:53.211Z,9.712097
2022-09-30T09:35:53.202Z,9.711591
2022-09-30T09:36:53.247Z,9.711645
2022-09-30T09:37:54.083Z,9.711655
2022-09-30T09:38:53.180Z,9.711435
2022-09-30T09:39:53.201Z,9.711552
2022-09-30T09:40:53.164Z,9.711767
2022-09-30T09:41:54.707Z,9.711636
2022-09-30T09:42:53.148Z,9.711856
2022-09-30T09:43:53.139Z,9.711735
2022-09-30T09:44:53.155Z,9.711532
2022-09-30T09:45:53.198Z,9.711566
2022-09-30T09:50:41.056Z,9.711160
2022-09-30T09:51:41.051Z,9.711145
2022-09-30T09:52:41.049Z,9.711026
2022-09-30T09:53:41.037Z,9.710958
2022-09-30T09:54:41.070Z,9.710986
2022-09-30T09:55:41.038Z,9.711140
2022-09-30T09:56:41.014Z,9.711156
2022-09-30T09:57:41.924Z,9.711155
2022-09-30T09:58:41.037Z,9.711284
2022-09-30T09:59:41.056Z,9.711089
2022-09-30T10:00:40.980Z,9.711169
2022-09-30T10:01:41.006Z,9.711177
2022-09-30T10:02:41.019Z,9.711205
2022-09-30T10:03:40.951Z,9.711165
2022-09-30T10:04:41.955Z,9.711189
2022-09-30T10:05:40.948Z,9.711165
2022-09-30T10:06:41.947Z,9.711167
2022-09-30T10:07:40.930Z,9.711130
2022-09-30T10:08:40.923Z,9.711122
2022-09-30T10:09:40.912Z,9.711169
2022-09-30T10:10:40.912Z,9.711192
2022-09-30T10:11:43.436Z,9.711149
2022-09-30T10:12:41.869Z,9.711181
2022-09-30T10:13:40.887Z,9.711223
2022-09-30T10:14:40.896Z,9.711273
2022-09-30T10:15:40.898Z,9.711151
2022-09-30T10:16:42.873Z,9.711146
2022-09-30T10:17:40.990Z,9.711175
2022-09-30T10:18:40.845Z,9.711331
2022-09-30T10:19:41.836Z,9.711277
2022-09-30T10:20:40.857Z,9.711379
2022-09-30T10:21:40.822Z,9.711227
2022-09-30T10:22:40.808Z,9.711182
2022-09-30T10:23:40.826Z,9.711109
2022-09-30T10:24:40.833Z,9.711258
2022-09-30T10:32:48.148Z,9.711897
2022-09-30T10:33:49.143Z,9.711993
2022-09-30T10:34:48.137Z,9.712015
2022-09-30T10:35:48.108Z,9.711936
2022-09-30T10:36:48.105Z,9.711914
2022-09-30T10:37:51.397Z,9.711910
2022-09-30T10:38:49.084Z,9.711886
2022-09-30T10:39:48.542Z,9.711905
2022-09-30T10:40:48.067Z,9.712009
2022-09-30T10:41:48.065Z,9.711918
2022-09-30T10:42:48.060Z,9.712025
2022-09-30T10:43:48.052Z,9.711999
2022-09-30T10:44:48.044Z,9.711878
2022-09-30T10:46:06.974Z,9.711749
2022-09-30T10:46:50.079Z,9.711626
2022-09-30T10:47:48.012Z,9.711574
2022-09-30T10:48:48.023Z,9.711581
2022-09-30T10:49:49.047Z,9.711531
2022-09-30T10:50:47.993Z,9.711419
2022-09-30T10:51:48.004Z,9.711432
2022-09-30T10:52:47.996Z,9.711473
2022-09-30T10:53:48.502Z,9.711627
2022-09-30T10:54:49.170Z,9.711580
2022-09-30T10:55:47.961Z,9.711673
2022-09-30T10:56:47.951Z,9.711749
2022-09-30T10:57:48.025Z,9.711649
2022-09-30T10:58:48.016Z,9.711719
2022-09-30T10:59:47.930Z,9.711659
2022-09-30T11:00:47.956Z,9.711656
2022-09-30T11:01:47.946Z,9.711712
2022-09-30T11:02:50.466Z,9.711800
2022-09-30T11:03:50.564Z,9.711707
2022-09-30T11:04:47.900Z,9.711768
2022-09-30T11:05:47.905Z,9.711711
2022-09-30T11:06:48.502Z,9.711557
2022-09-30T11:07:47.863Z,9.711514
2022-09-30T11:08:47.905Z,9.711633
2022-09-30T11:09:47.862Z,9.711605
2022-09-30T11:10:48.531Z,9.711594
2022-09-30T11:11:47.822Z,9.711557
2022-09-30T11:12:47.818Z,9.711654
2022-09-30T11:13:47.805Z,9.711670
2022-09-30T11:14:48.542Z,9.711519
2022-09-30T11:15:47.794Z,9.711611
2022-09-30T11:16:47.900Z,9.711657
2022-09-30T11:17:47.822Z,9.711622
2022-09-30T11:18:47.768Z,9.711614
2022-09-30T11:19:47.762Z,9.711807
2022-09-30T11:20:47.747Z,9.711699
2022-09-30T11:21:48.541Z,9.711720
2022-09-30T11:22:47.725Z,9.711752
2022-09-30T11:23:49.540Z,9.711725
2022-09-30T11:24:47.748Z,9.711678
2022-09-30T11:25:47.718Z,9.711608
2022-09-30T11:26:49.528Z,9.711578
2022-09-30T11:27:47.763Z,9.711679
2022-09-30T11:28:47.696Z,9.711647
2022-09-30T11:29:47.696Z,9.711627
2022-09-30T11:30:49.464Z,9.711627
2022-09-30T11:31:47.713Z,9.711660
2022-09-30T11:32:47.680Z,9.711596
2022-09-30T11:33:47.644Z,9.711561
2022-09-30T11:34:47.647Z,9.711750
2022-09-30T11:35:47.660Z,9.711499
2022-09-30T11:36:47.617Z,9.711585
2022-09-30T11:37:47.610Z,9.711535
2022-09-30T11:38:47.605Z,9.711576
2022-09-30T11:39:47.596Z,9.711545
2022-09-30T11:40:47.600Z,9.711572
2022-09-30T11:41:47.577Z,9.711679
2022-09-30T11:42:47.571Z,9.711712
2022-09-30T11:43:47.567Z,9.711687
2022-09-30T11:44:47.556Z,9.711618
2022-09-30T11:45:47.584Z,9.711701
2022-09-30T11:46:47.543Z,9.711659
2022-09-30T11:47:47.528Z,9.711714
2022-09-30T11:48:47.557Z,9.711642
2022-09-30T11:49:47.528Z,9.711789
2022-09-30T11:50:48.017Z,9.711801
2022-09-30T11:51:47.499Z,9.711864
2022-09-30T11:52:47.530Z,9.711751
2022-09-30T11:53:48.019Z,9.711732
2022-09-30T11:54:48.945Z,9.711655
2022-09-30T11:55:47.500Z,9.712116
2022-09-30T11:56:47.512Z,9.711821
2022-09-30T11:57:47.488Z,9.711821
2022-09-30T11:58:48.017Z,9.711754
2022-09-30T11:59:47.433Z,9.711777
2022-09-30T12:00:48.446Z,9.711906
2022-09-30T12:01:47.469Z,9.711911
2022-09-30T12:02:47.460Z,9.711772
2022-09-30T12:03:47.407Z,9.711773
2022-09-30T12:04:47.399Z,9.711620
2022-09-30T12:05:48.025Z,9.711651
2022-09-30T12:06:47.415Z,9.711569
2022-09-30T12:07:47.376Z,9.711559
2022-09-30T12:08:48.945Z,9.711616
2022-09-30T12:09:47.359Z,9.711583
2022-09-30T12:10:47.355Z,9.711630
2022-09-30T12:11:47.387Z,9.711610
2022-09-30T12:12:47.334Z,9.711660
2022-09-30T12:13:47.349Z,9.711736
2022-09-30T12:14:47.325Z,9.711685
2022-09-30T12:15:48.043Z,9.711683
2022-09-30T12:16:47.378Z,9.711698
2022-09-30T12:17:47.337Z,9.711794
2022-09-30T12:18:47.297Z,9.711739
2022-09-30T12:19:47.420Z,9.711623
2022-09-30T12:20:47.286Z,9.711765
2022-09-30T12:21:47.285Z,9.711551
2022-09-30T12:22:47.265Z,9.711846
2022-09-30T12:23:47.250Z,9.712092
2022-09-30T12:24:47.249Z,9.711871
2022-09-30T12:25:47.246Z,9.711746
2022-09-30T12:26:48.956Z,9.711580
2022-09-30T12:28:17.468Z,9.711901
2022-09-30T12:28:47.224Z,9.711905
2022-09-30T12:29:47.227Z,9.711681
2022-09-30T12:30:47.200Z,9.711844
2022-09-30T12:31:47.222Z,9.711774
2022-09-30T12:32:47.191Z,9.711598
2022-09-30T12:33:47.171Z,9.711545
2022-09-30T12:34:47.160Z,9.711570
2022-09-30T12:35:47.158Z,9.711606
2022-09-30T12:36:47.146Z,9.711651
2022-09-30T12:37:47.147Z,9.711711
2022-09-30T12:38:47.143Z,9.711615
2022-09-30T12:39:47.128Z,9.711500
2022-09-30T12:40:52.430Z,9.711489